Time;durP1;ratioP1;P1;durP2;ratioP2;P2;SDS_P1;SDS_P2;PMS_P1;PMS_P2;Temp;Humidity;BMP_temperature;BMP_pressure;BME280_temperature;BME280_humidity;BME280_pressure;Samples;Min_cycle;Max_cycle;Signal;HPM_P1;HPM_P2
2020/12/25 00:00:07;;;;;;;18.25;9.52;;;;;;;0.02;36.82;101981.97;4967683;28;20031;-89
2020/12/25 00:02:34;;;;;;;20.50;10.52;;;;;;;0.38;37.13;102050.22;4967398;28;20041;-88
2020/12/25 00:05:01;;;;;;;16.63;9.30;;;;;;;-0.36;36.17;101927.50;4952883;28;20043;-89
2020/12/25 00:07:28;;;;;;;18.05;9.13;;;;;;;-0.67;35.66;101940.50;4967387;28;20547;-89
2020/12/25 00:10:04;;;;;;;17.15;9.82;;;;;;;-0.47;35.86;101946.75;4952349;28;20121;-90
2020/12/25 00:12:40;;;;;;;25.92;8.63;;;;;;;-0.56;35.94;101971.13;4968376;28;20050;-88
2020/12/25 00:15:24;;;;;;;23.45;10.43;;;;;;;0.17;34.54;102036.81;4956280;29;20166;-90
2020/12/25 00:17:51;;;;;;;19.52;8.68;;;;;;;-0.89;34.79;101915.34;4955627;29;20031;-94
2020/12/25 00:20:27;;;;;;;19.33;8.73;;;;;;;-1.40;34.98;101853.88;4953495;28;20038;-88
2020/12/25 00:23:15;;;;;;;22.02;8.50;;;;;;;-0.94;34.74;101914.91;4969675;28;20066;-86
2020/12/25 00:25:41;;;;;;;19.65;10.63;;;;;;;-0.49;35.13;102025.78;4952152;29;20412;-91
2020/12/25 00:28:14;;;;;;;21.50;7.97;;;;;;;-1.60;34.69;101804.09;4951026;29;20031;-90
2020/12/25 00:30:45;;;;;;;15.45;7.18;;;;;;;-0.63;35.23;101972.69;4951542;29;20066;-88
2020/12/25 00:33:11;;;;;;;;;;;;;;;0.20;35.25;102093.72;4949292;28;20031;-91
2020/12/25 00:35:41;;;;;;;12.00;7.10;;;;;;;0.16;35.39;102105.06;4952243;29;20348;-90
2020/12/25 00:38:08;;;;;;;14.45;5.97;;;;;;;-1.04;35.80;101923.94;4966661;28;20061;-93
2020/12/25 00:40:41;;;;;;;19.73;8.75;;;;;;;-0.49;35.76;101987.69;4951309;29;20046;-86
2020/12/25 00:43:08;;;;;;;16.45;6.68;;;;;;;0.07;35.61;102053.16;4967430;28;20046;-93
2020/12/25 00:45:35;;;;;;;18.25;8.27;;;;;;;0.07;35.18;102080.41;4976959;28;20046;-90
2020/12/25 00:48:03;;;;;;;17.30;7.93;;;;;;;0.37;35.64;102116.59;4972455;28;20056;-91
2020/12/25 00:50:29;;;;;;;21.58;7.72;;;;;;;-1.10;36.00;101948.97;4972951;28;20118;-91
2020/12/25 00:52:56;;;;;;;15.20;7.75;;;;;;;-0.92;33.71;101972.72;4970362;28;20031;-85
2020/12/25 00:55:23;;;;;;;15.65;7.97;;;;;;;-0.36;33.60;101994.72;4971481;28;20019;-91
2020/12/25 00:57:50;;;;;;;14.90;7.60;;;;;;;-0.13;33.38;102046.09;4986656;28;20078;-88
2020/12/25 01:00:17;;;;;;;12.88;7.20;;;;;;;-1.13;34.54;101957.44;4975342;28;20244;-83
2020/12/25 01:02:44;;;;;;;11.02;6.63;;;;;;;-1.12;35.13;101918.38;4970547;28;20039;-86
2020/12/25 01:05:11;;;;;;;18.77;8.15;;;;;;;-0.15;35.39;102063.44;4985778;28;20030;-90
2020/12/25 01:07:38;;;;;;;15.43;7.95;;;;;;;-0.18;35.09;102076.47;4987669;28;20031;-91
2020/12/25 01:10:05;;;;;;;13.82;7.68;;;;;;;-0.12;35.00;102017.84;4986184;28;20388;-87
2020/12/25 01:12:32;;;;;;;9.43;5.45;;;;;;;-0.55;35.37;102102.56;4969999;28;20023;-87
2020/12/25 01:14:59;;;;;;;13.68;7.30;;;;;;;-1.90;35.25;101856.69;4969900;28;20027;-87
2020/12/25 01:17:26;;;;;;;19.58;7.65;;;;;;;-0.17;35.28;102062.69;4986658;28;20027;-87
2020/12/25 01:19:53;;;;;;;16.98;6.95;;;;;;;-0.53;35.21;102005.34;4966041;28;20061;-91
2020/12/25 01:22:21;;;;;;;14.63;8.90;;;;;;;-1.12;35.65;101932.81;4970923;28;20034;-85
2020/12/25 01:24:48;;;;;;;14.23;7.00;;;;;;;0.12;35.44;102105.34;4986137;28;20132;-88
2020/12/25 01:27:15;;;;;;;16.08;6.88;;;;;;;0.23;34.91;102057.16;4984886;28;20035;-87
2020/12/25 01:29:42;;;;;;;11.48;6.93;;;;;;;-0.44;35.27;102000.88;4972080;28;20041;-88
2020/12/25 01:32:09;;;;;;;20.65;8.27;;;;;;;-1.13;36.34;101987.31;4970905;28;20065;-89
2020/12/25 01:34:36;;;;;;;16.52;7.65;;;;;;;-0.69;36.93;102076.66;4970441;28;20027;-87
2020/12/25 01:37:03;;;;;;;16.92;8.85;;;;;;;-0.51;36.13;102008.78;4984334;28;20175;-93
2020/12/25 01:39:30;;;;;;;12.77;7.10;;;;;;;-0.97;36.28;101913.34;4972681;28;20027;-86
2020/12/25 01:41:57;;;;;;;15.98;6.35;;;;;;;0.66;35.75;102169.31;4977239;28;20042;-88
2020/12/25 01:44:24;;;;;;;11.35;5.88;;;;;;;0.42;36.57;102105.28;4994896;28;20026;-85
2020/12/25 01:46:51;;;;;;;11.73;6.18;;;;;;;0.39;36.25;102089.22;4986075;28;20104;-89
2020/12/25 01:49:19;;;;;;;13.70;6.43;;;;;;;0.22;36.21;102022.72;4983486;28;20399;-91
2020/12/25 01:51:46;;;;;;;9.35;5.28;;;;;;;0.58;36.57;102071.91;4979813;28;20039;-86
2020/12/25 01:54:13;;;;;;;13.93;6.63;;;;;;;0.13;37.71;102074.38;4986487;28;20030;-89
2020/12/25 01:56:42;;;;;;;16.25;6.85;;;;;;;0.01;37.80;102026.56;4996281;28;20026;-88
2020/12/25 01:59:10;;;;;;;15.18;7.40;;;;;;;0.15;37.41;101978.91;4985473;28;20035;-88
2020/12/25 02:01:37;;;;;;;14.93;9.13;;;;;;;-0.36;37.31;101855.91;5001364;28;20113;-89
2020/12/25 02:04:04;;;;;;;19.13;7.43;;;;;;;0.62;37.62;101980.66;4995572;28;20027;-89
2020/12/25 02:06:40;;;;;;;9.82;5.97;;;;;;;0.79;38.17;102025.28;5000645;28;20038;-87
2020/12/25 02:09:07;;;;;;;12.02;6.72;;;;;;;1.59;38.14;102153.81;4977755;28;20034;-86
2020/12/25 02:11:37;;;;;;;18.23;6.30;;;;;;;1.55;38.03;102111.50;4999895;28;20133;-88
2020/12/25 02:14:04;;;;;;;16.58;6.88;;;;;;;2.18;38.16;102156.03;4988301;28;20034;-87
2020/12/25 02:16:31;;;;;;;13.27;7.40;;;;;;;1.81;39.13;102162.56;4980171;28;20108;-92
2020/12/25 02:18:58;;;;;;;11.55;6.28;;;;;;;1.53;40.03;102111.63;4988476;28;20038;-87
2020/12/25 02:21:25;;;;;;;16.67;8.10;;;;;;;1.72;40.45;102151.56;4983442;28;20529;-87
2020/12/25 02:23:52;;;;;;;17.75;7.22;;;;;;;1.29;39.46;102052.22;4984485;28;20108;-92
2020/12/25 02:26:19;;;;;;;17.17;7.10;;;;;;;1.83;39.27;102157.81;4988397;28;20488;-91
2020/12/25 02:28:46;;;;;;;14.70;10.00;;;;;;;1.33;39.93;102109.06;5005251;28;20489;-91
2020/12/25 02:31:13;;;;;;;15.77;6.40;;;;;;;1.08;40.60;102047.94;4983856;28;20097;-88
2020/12/25 02:33:40;;;;;;;16.67;7.22;;;;;;;1.16;41.11;102108.03;4989669;28;20121;-92
2020/12/25 02:36:07;;;;;;;17.95;6.50;;;;;;;1.09;41.45;102094.13;4984857;28;20058;-95
2020/12/25 02:38:34;;;;;;;14.52;8.00;;;;;;;0.48;43.01;102063.78;5003553;28;20023;-94
2020/12/25 02:41:01;;;;;;;11.40;6.00;;;;;;;0.35;43.84;102050.50;4984628;28;20503;-93
2020/12/25 02:43:28;;;;;;;13.77;6.13;;;;;;;0.70;43.17;102041.72;4995202;28;20125;-90
2020/12/25 02:45:54;;;;;;;18.05;9.65;;;;;;;0.98;42.98;102044.41;5006656;28;20395;-92
2020/12/25 02:48:22;;;;;;;11.02;6.82;;;;;;;0.93;43.06;102045.75;4994666;28;20833;-89
2020/12/25 02:50:49;;;;;;;20.88;6.95;;;;;;;0.74;43.07;102015.88;4996273;28;20034;-89
2020/12/25 02:53:15;;;;;;;14.93;6.65;;;;;;;0.88;43.79;102091.69;5006587;28;20551;-86
2020/12/25 02:55:42;;;;;;;12.25;7.03;;;;;;;1.29;43.68;102113.13;4988313;28;20022;-90
2020/12/25 02:58:09;;;;;;;18.38;5.63;;;;;;;0.99;42.69;102035.22;4987412;28;20049;-92
2020/12/25 03:00:36;;;;;;;19.23;5.45;;;;;;;1.01;43.35;102093.22;4984843;28;20030;-91
2020/12/25 03:03:03;;;;;;;17.15;8.15;;;;;;;1.12;43.19;102076.59;4999708;28;20030;-92
2020/12/25 03:05:30;;;;;;;17.15;8.02;;;;;;;1.38;43.51;102165.03;5001118;28;20388;-90
2020/12/25 03:07:57;;;;;;;12.80;5.20;;;;;;;0.97;42.82;102048.16;4984517;28;20827;-93
2020/12/25 03:10:24;;;;;;;14.52;5.93;;;;;;;0.93;43.17;102058.50;5004169;28;20041;-93
2020/12/25 03:12:51;;;;;;;9.35;5.60;;;;;;;0.24;42.18;101919.94;5000729;28;20030;-89
2020/12/25 03:15:18;;;;;;;13.05;7.38;;;;;;;1.22;41.41;102031.03;4984518;28;20093;-90
2020/12/25 03:17:45;;;;;;;14.85;5.68;;;;;;;1.48;41.39;102128.47;5000662;28;20541;-92
2020/12/25 03:20:12;;;;;;;13.05;4.78;;;;;;;-0.70;41.79;101847.28;4991297;28;20388;-96
2020/12/25 03:22:39;;;;;;;11.77;5.32;;;;;;;0.78;41.70;102063.63;5001453;28;20023;-95
2020/12/25 03:25:06;;;;;;;13.35;5.82;;;;;;;1.31;41.32;102113.81;4996613;28;20030;-93
2020/12/25 03:27:33;;;;;;;14.10;5.22;;;;;;;0.44;42.19;101979.75;5000757;28;20106;-92
2020/12/25 03:30:00;;;;;;;14.75;6.18;;;;;;;0.64;42.46;102010.47;4997059;28;20057;-94
2020/12/25 03:32:27;;;;;;;10.70;5.50;;;;;;;0.74;42.93;101994.06;4982091;28;20048;-93
2020/12/25 03:34:55;;;;;;;11.00;4.55;;;;;;;-0.06;42.79;101851.19;4985427;28;20126;-93
2020/12/25 03:37:22;;;;;;;13.15;6.15;;;;;;;1.41;42.16;102028.28;4987140;28;20038;-87
2020/12/25 03:39:49;;;;;;;16.35;6.40;;;;;;;0.85;42.02;101946.63;4987158;28;20037;-92
2020/12/25 03:42:16;;;;;;;14.05;6.35;;;;;;;2.12;41.96;102121.16;4982293;28;20050;-94
2020/12/25 03:44:43;;;;;;;11.15;4.90;;;;;;;1.70;40.73;102054.44;4984663;28;20027;-94
2020/12/25 03:47:10;;;;;;;8.00;4.30;;;;;;;2.08;40.01;102086.97;4982001;28;20088;-93
2020/12/25 03:49:40;;;;;;;13.23;4.65;;;;;;;1.41;40.73;102006.47;5010809;28;20018;-94
2020/12/25 03:52:07;;;;;;;9.80;4.32;;;;;;;2.49;39.63;102076.28;5008725;28;20149;-91
2020/12/25 03:54:34;;;;;;;10.30;4.95;;;;;;;2.27;39.08;102091.38;5005497;28;20030;-90
2020/12/25 03:57:01;;;;;;;10.63;4.70;;;;;;;2.07;39.88;102083.38;4990078;28;20098;-89
2020/12/25 03:59:28;;;;;;;13.30;4.47;;;;;;;2.04;39.23;102086.44;4986645;28;20030;-88
2020/12/25 04:01:55;;;;;;;8.82;4.90;;;;;;;0.60;39.91;101862.72;5002857;28;20125;-88
2020/12/25 04:04:22;;;;;;;13.40;4.85;;;;;;;1.36;40.41;102034.19;5013724;28;20065;-93
2020/12/25 04:06:49;;;;;;;13.15;4.70;;;;;;;1.50;40.54;102085.50;4991435;28;20053;-90
2020/12/25 04:09:15;;;;;;;15.60;5.18;;;;;;;1.82;39.93;102091.41;5003238;28;20080;-87
2020/12/25 04:11:43;;;;;;;10.65;4.38;;;;;;;2.14;39.15;102083.63;5003955;28;20026;-92
2020/12/25 04:14:10;;;;;;;10.38;5.05;;;;;;;1.44;39.68;102038.88;4993891;28;20034;-89
2020/12/25 04:16:37;;;;;;;15.38;5.10;;;;;;;0.71;39.54;101890.78;4982992;28;20022;-94
2020/12/25 04:19:04;;;;;;;11.02;4.38;;;;;;;0.73;39.45;101888.75;4992600;28;20049;-95
2020/12/25 04:21:34;;;;;;;11.95;5.25;;;;;;;0.32;39.63;101830.13;5004597;28;20372;-94
2020/12/25 04:24:37;;;;;;;11.35;4.60;;;;;;;1.11;38.49;101935.78;5010797;28;20073;-96
2020/12/25 04:29:40;;;;;;;13.60;6.20;;;;;;;1.82;40.22;102074.16;5088105;23;20061;-86
2020/12/25 04:32:07;;;;;;;27.00;6.30;;;;;;;1.55;41.75;102101.41;4994442;28;20854;-96
2020/12/25 04:34:34;;;;;;;15.48;5.88;;;;;;;1.45;40.87;101992.34;5006267;28;20034;-95
2020/12/25 04:37:01;;;;;;;11.63;4.88;;;;;;;1.89;40.16;102095.22;4997298;28;20034;-95
2020/12/25 04:39:27;;;;;;;9.60;5.25;;;;;;;1.48;40.68;102073.91;5003880;28;20023;-95
2020/12/25 04:41:56;;;;;;;9.18;5.20;;;;;;;0.97;39.86;101929.03;4978281;28;20061;-88
2020/12/25 04:44:25;;;;;;;12.73;5.25;;;;;;;1.61;40.34;102072.66;4976344;28;20129;-95
2020/12/25 04:46:52;;;;;;;12.57;5.05;;;;;;;0.89;40.23;101905.25;4980914;28;20089;-95
2020/12/25 04:49:22;;;;;;;14.85;5.68;;;;;;;1.52;40.46;102049.00;4979787;28;20041;-92
2020/12/25 04:51:49;;;;;;;16.73;5.07;;;;;;;0.36;40.64;101894.19;5001429;28;20041;-89
2020/12/25 04:54:16;;;;;;;18.98;4.97;;;;;;;0.42;39.73;101864.63;4999408;28;20030;-93
2020/12/25 04:56:43;;;;;;;9.73;5.53;;;;;;;1.69;39.38;102026.28;4983830;28;20144;-91
2020/12/25 04:59:10;;;;;;;9.55;4.05;;;;;;;2.12;39.03;102074.69;4984227;28;20105;-91
2020/12/25 05:01:40;;;;;;;10.82;4.60;;;;;;;1.57;40.04;102005.72;4982197;28;20034;-92
2020/12/25 05:04:18;;;;;;;18.38;4.75;;;;;;;1.54;39.65;102000.59;5000440;28;20503;-93
2020/12/25 05:06:49;;;;;;;8.35;4.22;;;;;;;2.14;38.86;102045.38;4976508;28;21575;-93
2020/12/25 05:09:18;;;;;;;8.75;3.85;;;;;;;1.46;38.72;101950.38;4988210;28;20031;-93
2020/12/25 05:11:51;;;;;;;15.90;6.28;;;;;;;1.43;39.29;101972.50;4986375;28;20042;-90
2020/12/25 05:14:58;;;;;;;6.90;4.25;;;;;;;-0.67;39.69;101639.44;4977001;28;20109;-87
2020/12/25 05:17:25;;;;;;;16.67;4.55;;;;;;;0.95;40.25;101910.06;4992738;28;20037;-87
2020/12/25 05:19:52;;;;;;;17.17;5.70;;;;;;;1.12;39.25;101914.81;4991356;28;20065;-88
2020/12/25 05:22:20;;;;;;;9.95;4.00;;;;;;;1.00;39.31;101855.06;4979193;28;20610;-87
2020/12/25 05:24:47;;;;;;;7.43;4.82;;;;;;;1.60;39.18;101972.66;4975881;28;20084;-87
2020/12/25 05:27:13;;;;;;;14.40;6.97;;;;;;;1.08;40.07;101936.09;4984416;28;20037;-94
2020/12/25 05:29:42;;;;;;;15.10;5.97;;;;;;;1.83;39.13;101972.13;4976183;28;20108;-90
2020/12/25 05:32:09;;;;;;;15.88;4.65;;;;;;;1.32;38.92;101927.22;4985898;28;20061;-91
2020/12/25 05:34:36;;;;;;;8.23;5.15;;;;;;;1.74;38.14;101990.31;4997622;28;20011;-92
2020/12/25 05:37:04;;;;;;;14.55;5.07;;;;;;;1.23;38.05;101937.25;4997892;28;20030;-88
2020/12/25 05:39:37;;;;;;;9.93;4.50;;;;;;;0.78;38.55;101851.81;4977730;28;20038;-90
2020/12/25 05:42:07;;;;;;;14.55;5.78;;;;;;;1.62;38.26;101970.59;4997551;28;20030;-90
2020/12/25 05:44:47;;;;;;;9.50;4.07;;;;;;;2.14;38.34;102061.75;4981975;28;20030;-89
2020/12/25 05:47:14;;;;;;;;;;;;;;;1.88;38.06;102047.06;4986117;28;20590;-90
2020/12/25 05:49:48;;;;;;;16.15;5.10;;;;;;;1.98;37.58;102059.75;5015716;28;19921;-90
2020/12/25 05:52:15;;;;;;;9.65;4.30;;;;;;;1.13;37.67;101901.00;5000395;28;20176;-90
2020/12/25 05:54:48;;;;;;;10.13;4.32;;;;;;;0.81;38.33;101886.09;4995443;28;20336;-92
2020/12/25 05:57:20;;;;;;;14.60;5.80;;;;;;;0.89;38.43;101872.53;4995998;28;20081;-87
2020/12/25 05:59:50;;;;;;;8.82;4.30;;;;;;;0.24;37.69;101759.22;4982579;28;20589;-89
2020/12/25 06:02:17;;;;;;;12.10;5.53;;;;;;;0.29;37.67;101778.66;4982347;28;20034;-91
2020/12/25 06:04:46;;;;;;;12.63;4.88;;;;;;;2.20;37.77;102061.09;4983717;28;20137;-90
2020/12/25 06:07:22;;;;;;;10.55;5.47;;;;;;;2.17;38.34;102066.88;4982314;28;20125;-89
2020/12/25 06:09:58;;;;;;;9.18;3.88;;;;;;;1.72;38.41;102030.59;4984728;28;20034;-88
2020/12/25 06:12:40;;;;;;;16.15;5.53;;;;;;;1.74;38.98;102062.16;4985348;28;20029;-89
2020/12/25 06:15:13;;;;;;;8.52;4.75;;;;;;;1.95;38.43;102052.75;4980595;28;20364;-87
2020/12/25 06:18:21;;;;;;;15.02;5.97;;;;;;;1.53;39.15;102020.72;4987851;28;20038;-88
2020/12/25 06:20:57;;;;;;;14.02;4.40;;;;;;;1.25;38.78;101994.38;4989808;28;20057;-90
2020/12/25 06:23:27;;;;;;;13.75;6.05;;;;;;;0.67;39.00;101891.06;4998219;28;20030;-88
2020/12/25 06:25:58;;;;;;;18.85;6.82;;;;;;;1.75;39.83;102061.16;4981858;28;20034;-89
2020/12/25 06:28:25;;;;;;;18.27;6.13;;;;;;;0.71;39.89;101874.44;4991534;28;20479;-90
2020/12/25 06:30:52;;;;;;;21.67;5.10;;;;;;;2.10;39.61;102076.75;4999307;28;20034;-88
2020/12/25 06:33:26;;;;;;;8.55;4.72;;;;;;;1.83;39.42;101985.78;4981159;28;20152;-88
2020/12/25 06:35:59;;;;;;;21.65;7.07;;;;;;;2.31;39.37;102079.09;4983019;28;20053;-87
2020/12/25 06:38:26;;;;;;;14.25;4.88;;;;;;;2.19;39.47;102064.84;4985129;28;20026;-86
2020/12/25 06:40:59;;;;;;;19.55;5.78;;;;;;;1.60;39.23;101899.78;5004612;28;20034;-87
2020/12/25 06:43:27;;;;;;;12.75;5.55;;;;;;;2.44;39.85;102060.38;4995050;28;20052;-90
2020/12/25 06:46:02;;;;;;;9.80;6.13;;;;;;;2.27;39.76;102088.63;4980174;28;20030;-91
2020/12/25 06:48:30;;;;;;;11.85;5.22;;;;;;;0.59;40.46;101836.50;5002749;28;20088;-92
2020/12/25 06:51:00;;;;;;;12.23;5.45;;;;;;;1.17;41.09;101883.31;4986670;28;20030;-96
2020/12/25 06:53:33;;;;;;;17.48;4.85;;;;;;;2.35;40.16;102047.69;5014331;28;20010;-94
2020/12/25 06:56:17;;;;;;;9.18;4.28;;;;;;;1.72;41.77;102061.47;4983584;28;20030;-91
2020/12/25 06:58:50;;;;;;;17.77;5.75;;;;;;;1.81;40.92;102053.31;4981795;28;20168;-89
2020/12/25 07:01:34;;;;;;;17.20;5.60;;;;;;;1.90;41.55;102057.84;4978201;28;20050;-90
2020/12/25 07:04:01;;;;;;;18.10;5.65;;;;;;;1.35;41.57;101964.25;4984826;28;20447;-91
2020/12/25 07:06:33;;;;;;;11.25;4.20;;;;;;;1.80;42.02;102049.75;4994452;28;20046;-95
2020/12/25 07:09:11;;;;;;;10.57;5.13;;;;;;;1.13;41.97;101949.25;5005745;28;20026;-95
2020/12/25 07:14:46;;;;;;;17.17;5.75;;;;;;;1.74;41.40;101976.66;4983880;28;20047;-92
2020/12/25 07:17:36;;;;;;;16.17;5.80;;;;;;;1.95;41.99;102047.28;4969598;28;20026;-96
2020/12/25 07:20:13;;;;;;;10.95;4.82;;;;;;;1.74;41.94;102006.69;4974117;28;20054;-94
2020/12/25 07:22:41;;;;;;;10.43;5.40;;;;;;;0.46;42.28;101806.09;4989646;28;20090;-91
2020/12/25 07:25:09;;;;;;;16.23;6.20;;;;;;;-0.32;42.73;101705.78;4964245;28;20037;-94
2020/12/25 07:27:36;;;;;;;14.23;6.40;;;;;;;1.06;42.78;101952.63;4961122;28;20031;-96
2020/12/25 07:30:05;;;;;;;10.40;4.80;;;;;;;1.97;42.19;102067.09;4984666;28;20622;-91
2020/12/25 07:32:32;;;;;;;16.15;5.75;;;;;;;0.93;42.91;101912.13;4981314;28;20034;-89
2020/12/25 07:35:07;;;;;;;13.68;4.63;;;;;;;1.21;43.63;101946.59;4976114;28;20031;-87
2020/12/25 07:37:34;;;;;;;18.60;5.38;;;;;;;1.76;43.43;102018.31;4998185;28;20037;-96
2020/12/25 07:40:06;;;;;;;13.25;5.05;;;;;;;0.87;43.62;101870.97;4972464;28;20065;-92
2020/12/25 07:42:33;;;;;;;7.88;4.70;;;;;;;1.86;43.18;101999.97;4982784;28;20033;-92
2020/12/25 07:45:01;;;;;;;10.63;4.35;;;;;;;1.69;43.12;101941.66;4971793;28;20037;-91
2020/12/25 07:47:28;;;;;;;11.43;4.90;;;;;;;2.16;43.36;102021.47;4984104;28;20045;-90
2020/12/25 07:49:55;;;;;;;21.65;4.90;;;;;;;1.72;44.02;102025.13;4966002;28;20034;-92
2020/12/25 07:52:23;;;;;;;10.32;5.28;;;;;;;0.62;44.41;101827.16;4969026;28;20031;-95
2020/12/25 07:54:50;;;;;;;12.77;4.85;;;;;;;1.89;43.87;102009.69;4966552;28;20035;-89
2020/12/25 07:57:18;;;;;;;16.88;4.72;;;;;;;1.82;44.50;102011.34;4963454;28;20022;-89
2020/12/25 07:59:47;;;;;;;18.30;4.40;;;;;;;1.77;44.36;102056.38;4963821;28;20027;-92
2020/12/25 08:02:14;;;;;;;16.85;5.55;;;;;;;1.36;44.10;102004.19;4974479;28;20023;-94
2020/12/25 08:04:41;;;;;;;20.35;5.88;;;;;;;0.80;44.65;101885.25;4972208;28;20496;-86
2020/12/25 08:07:09;;;;;;;17.48;5.60;;;;;;;1.18;44.90;102002.34;4970271;28;20113;-83
2020/12/25 08:09:38;;;;;;;10.23;4.88;;;;;;;0.50;44.96;101894.66;4969793;28;20085;-85
2020/12/25 08:12:10;;;;;;;14.75;5.20;;;;;;;1.18;44.26;101958.69;4971830;28;20034;-85
2020/12/25 08:14:44;;;;;;;15.80;6.13;;;;;;;0.75;44.54;101892.16;4973975;28;20035;-90
2020/12/25 08:17:13;;;;;;;11.82;5.43;;;;;;;1.09;43.54;101864.16;4963664;28;20058;-91
2020/12/25 08:19:40;;;;;;;16.10;5.47;;;;;;;1.26;44.20;101943.41;4963643;28;20047;-89
2020/12/25 08:22:10;;;;;;;12.25;5.28;;;;;;;1.17;44.82;101981.53;4982860;28;20377;-91
2020/12/25 08:24:37;;;;;;;15.77;5.32;;;;;;;0.87;44.62;101887.31;4962081;28;20057;-82
2020/12/25 08:27:04;;;;;;;14.50;6.65;;;;;;;0.72;44.69;101855.19;4976205;28;20043;-88
2020/12/25 08:29:32;;;;;;;17.98;6.20;;;;;;;1.69;44.26;102039.94;4975701;28;20031;-88
2020/12/25 08:32:07;;;;;;;14.38;6.15;;;;;;;1.81;44.31;102050.59;4961891;28;20023;-83
2020/12/25 08:34:35;;;;;;;11.93;5.25;;;;;;;1.13;44.45;101974.66;4962255;28;20118;-86
2020/12/25 08:37:07;;;;;;;15.90;5.20;;;;;;;0.95;44.63;101934.63;4995492;28;20019;-87
2020/12/25 08:39:34;;;;;;;16.23;5.63;;;;;;;1.71;44.62;102054.28;4978378;28;20085;-88
2020/12/25 08:42:02;;;;;;;14.73;7.47;;;;;;;1.64;44.29;102039.56;4976524;28;20030;-91
2020/12/25 08:44:29;;;;;;;13.57;5.05;;;;;;;1.92;43.45;102069.47;4978869;28;20471;-94
2020/12/25 08:47:10;;;;;;;12.18;5.18;;;;;;;2.05;43.10;102048.03;4963948;28;20034;-92
2020/12/25 08:49:37;;;;;;;15.90;5.30;;;;;;;1.26;44.26;101959.75;4956767;28;20043;-91
2020/12/25 08:52:19;;;;;;;12.90;5.50;;;;;;;1.08;44.54;101927.91;4976969;28;20990;-88
2020/12/25 08:54:55;;;;;;;13.73;5.53;;;;;;;1.88;43.82;102021.63;4956260;28;20038;-92
2020/12/25 08:57:23;;;;;;;19.55;6.38;;;;;;;1.81;44.35;101995.97;4958696;28;20070;-89
2020/12/25 09:00:06;;;;;;;16.02;5.40;;;;;;;1.76;43.60;101989.13;4975113;28;20037;-92
2020/12/25 09:02:33;;;;;;;17.25;5.57;;;;;;;1.53;43.70;101920.56;4982549;28;20038;-90
2020/12/25 09:05:00;;;;;;;10.32;5.07;;;;;;;1.04;43.63;101875.56;4955104;28;20030;-90
2020/12/25 09:07:27;;;;;;;14.32;5.60;;;;;;;2.16;43.97;102043.31;4974931;28;20110;-83
2020/12/25 09:09:54;;;;;;;12.10;5.40;;;;;;;1.87;43.84;102006.25;4973540;28;20027;-85
2020/12/25 09:12:21;;;;;;;16.02;5.70;;;;;;;0.17;44.55;101818.06;4958759;28;20504;-88
2020/12/25 09:14:48;;;;;;;15.30;5.60;;;;;;;1.45;45.05;102052.38;4980091;28;20129;-88
2020/12/25 09:17:15;;;;;;;14.23;5.28;;;;;;;1.33;45.79;102059.09;4979822;28;20031;-88
2020/12/25 09:19:43;;;;;;;11.95;5.40;;;;;;;1.53;45.18;102056.19;4961040;28;20045;-88
2020/12/25 09:22:10;;;;;;;13.43;5.25;;;;;;;1.49;45.06;102018.28;4977947;28;20027;-92
2020/12/25 09:24:37;;;;;;;22.85;5.38;;;;;;;1.12;45.33;101997.50;4977200;28;20034;-86
2020/12/25 09:27:04;;;;;;;15.57;5.68;;;;;;;1.27;44.63;101996.94;4959780;28;20058;-89
2020/12/25 09:29:31;;;;;;;16.48;6.95;;;;;;;0.07;44.88;101812.69;4975971;28;20033;-88
2020/12/25 09:31:58;;;;;;;26.45;7.30;;;;;;;1.91;44.38;102081.41;4998577;28;20023;-94
2020/12/25 09:34:27;;;;;;;15.90;5.82;;;;;;;1.58;44.91;102023.81;4974188;28;20035;-90
2020/12/25 09:36:54;;;;;;;13.90;5.50;;;;;;;0.33;44.97;101828.25;4977673;28;20023;-89
2020/12/25 09:39:20;;;;;;;18.40;5.57;;;;;;;0.85;44.48;101897.53;4961640;28;20039;-89
2020/12/25 09:41:49;;;;;;;14.98;5.95;;;;;;;1.92;44.67;102064.00;4979927;28;20399;-90
2020/12/25 09:44:16;;;;;;;18.15;9.15;;;;;;;1.26;44.72;101992.50;4993102;28;20106;-86
2020/12/25 09:46:43;;;;;;;13.27;5.38;;;;;;;2.04;44.58;102079.09;4977515;28;20089;-89
2020/12/25 09:49:10;;;;;;;15.02;5.50;;;;;;;1.96;44.26;102054.44;4977967;28;20039;-88
2020/12/25 09:51:37;;;;;;;13.93;5.45;;;;;;;1.64;44.69;102001.34;4977314;28;20042;-92
2020/12/25 09:54:04;;;;;;;13.75;5.78;;;;;;;1.46;44.71;101980.41;4963607;28;20070;-85
2020/12/25 09:56:31;;;;;;;17.85;5.45;;;;;;;1.82;44.96;102057.75;4959523;28;20118;-90
2020/12/25 09:58:58;;;;;;;17.00;5.15;;;;;;;0.76;45.36;101905.66;4978948;28;20029;-88
2020/12/25 10:01:24;;;;;;;14.40;6.07;;;;;;;1.45;46.16;102055.13;4981839;28;20023;-89
2020/12/25 10:03:51;;;;;;;12.32;5.90;;;;;;;1.37;46.72;102049.59;4980773;28;20095;-87
2020/12/25 10:06:21;;;;;;;14.65;5.70;;;;;;;1.23;46.64;102032.75;4973801;28;20125;-88
2020/12/25 10:08:48;;;;;;;11.13;5.15;;;;;;;0.71;46.79;101939.84;4977672;28;20119;-92
2020/12/25 10:11:20;;;;;;;17.75;5.63;;;;;;;0.97;46.97;102027.19;4983422;28;20185;-87
2020/12/25 10:13:47;;;;;;;12.93;6.70;;;;;;;1.59;46.76;102059.16;4974049;28;20026;-88
2020/12/25 10:16:14;;;;;;;13.32;4.95;;;;;;;1.32;46.13;101995.44;4976329;28;20054;-89
2020/12/25 10:18:41;;;;;;;12.68;5.93;;;;;;;1.86;46.11;102064.63;5000829;28;20049;-93
2020/12/25 10:21:08;;;;;;;10.45;5.78;;;;;;;1.27;46.04;101969.66;4967803;28;20057;-91
2020/12/25 10:23:35;;;;;;;14.75;6.00;;;;;;;1.64;46.10;102034.09;4975487;28;20085;-88
2020/12/25 10:26:02;;;;;;;12.68;5.95;;;;;;;1.73;46.03;102035.03;4983599;28;20047;-88
2020/12/25 10:28:29;;;;;;;13.15;6.80;;;;;;;2.12;46.21;102082.91;4978250;28;20566;-88
2020/12/25 10:30:56;;;;;;;18.88;5.78;;;;;;;1.98;46.12;102067.97;4963422;28;20030;-86
2020/12/25 10:33:23;;;;;;;16.25;7.78;;;;;;;1.85;45.92;102071.13;4969166;28;20538;-90
2020/12/25 10:35:50;;;;;;;21.10;9.93;;;;;;;1.64;46.27;102028.63;4966161;28;20035;-90
2020/12/25 10:38:17;;;;;;;26.35;10.95;;;;;;;1.13;46.42;101944.66;4967214;28;20019;-86
2020/12/25 10:40:43;;;;;;;12.50;6.22;;;;;;;1.59;46.50;102015.47;4985218;28;20053;-89
2020/12/25 10:43:10;;;;;;;17.23;6.75;;;;;;;1.84;46.08;102062.06;4979446;28;20025;-89
2020/12/25 10:45:39;;;;;;;18.02;7.55;;;;;;;1.03;46.45;101935.72;4982175;28;20027;-91
2020/12/25 10:48:06;;;;;;;10.13;5.40;;;;;;;0.93;46.29;101927.59;4987650;28;20046;-88
2020/12/25 10:50:33;;;;;;;19.67;6.75;;;;;;;1.42;44.96;102011.75;4973561;28;20459;-88
2020/12/25 10:53:00;;;;;;;17.63;6.43;;;;;;;1.37;44.78;102011.38;4968207;28;20031;-92
2020/12/25 10:55:27;;;;;;;16.83;6.45;;;;;;;2.01;44.71;102123.13;4964183;28;20027;-91
2020/12/25 10:57:53;;;;;;;13.75;6.70;;;;;;;1.55;44.96;102048.69;4967259;28;20121;-89
2020/12/25 11:00:20;;;;;;;13.60;6.90;;;;;;;1.32;44.17;101984.53;4961560;28;20035;-90
2020/12/25 11:02:47;;;;;;;17.13;6.63;;;;;;;1.85;44.45;102109.34;4997884;28;20476;-91
2020/12/25 11:05:17;;;;;;;12.90;6.20;;;;;;;1.67;44.43;102060.22;4971602;28;20113;-91
2020/12/25 11:07:44;;;;;;;14.63;5.88;;;;;;;1.47;45.04;102047.63;4979949;28;20046;-91
2020/12/25 11:10:11;;;;;;;12.77;6.45;;;;;;;1.24;44.98;102000.84;4982647;28;20043;-89
2020/12/25 11:12:38;;;;;;;16.77;5.97;;;;;;;1.93;44.95;102093.03;4972269;28;20029;-86
2020/12/25 11:15:05;;;;;;;16.38;7.95;;;;;;;1.29;44.91;102008.56;4972961;28;20026;-92
2020/12/25 11:17:32;;;;;;;14.00;6.10;;;;;;;0.86;45.10;101907.44;4980809;28;20062;-91
2020/12/25 11:19:59;;;;;;;20.50;7.03;;;;;;;1.96;45.14;102114.56;4975258;28;20065;-92
2020/12/25 11:22:26;;;;;;;12.90;7.00;;;;;;;1.69;45.16;102072.72;4977562;28;20102;-92
2020/12/25 11:24:53;;;;;;;14.48;7.05;;;;;;;1.88;45.39;102109.03;4958653;28;20081;-93
2020/12/25 11:27:20;;;;;;;14.95;7.00;;;;;;;1.87;45.22;102107.31;4975966;28;20069;-92
2020/12/25 11:29:47;;;;;;;20.98;7.13;;;;;;;1.61;45.45;102078.94;4974486;28;20069;-92
2020/12/25 11:32:14;;;;;;;15.15;8.00;;;;;;;1.58;45.36;102062.03;4962496;28;20392;-91
2020/12/25 11:34:41;;;;;;;16.13;7.57;;;;;;;2.02;45.54;102108.47;4982638;28;20054;-93
2020/12/25 11:37:08;;;;;;;12.98;6.40;;;;;;;1.84;45.58;102104.91;4993091;28;20043;-92